<?xml version="1.0" encoding="UTF-8" standalone="no" ?>
<gpx xmlns="http://www.topografix.com/GPX/1/1" xmlns:xsi="http://www.w3.org/2001/XMLSchema-instance" xsi:schemaLocation="http://www.topografix.com/GPX/1/1 http://www.topografix.com/GPX/1/1/gpx.xsd" version="1.1" creator="VisuGPX - https://www.visugpx.com">
  <metadata>
    <name>Crugey - Bouhey</name>
    <desc><![CDATA[Des berges verdoyantes du canal de Bourgogne, à Crugey, au charmant village moyenâgeux de Bouhey d\'où l\'on découvre les plaines et les vallées environnantes. Randonnée sans grande difficulté sauf un important dénivelé au départ.]]></desc>
  </metadata>
  <trk>
    <name><![CDATA[11 juin 2013 10:03:16]]></name>
    <cmt><![CDATA[11 juin 2013 10:03:16]]></cmt>
    <trkseg>
      <trkpt lat="47.18644" lon="4.66951">
        <ele>288</ele>
        <time>2013-06-11T08:03:16Z</time>
      </trkpt>
      <trkpt lat="47.18645" lon="4.66987">
        <ele>293</ele>
        <time>2013-06-11T08:03:39Z</time>
      </trkpt>
      <trkpt lat="47.18635" lon="4.67007">
        <ele>296</ele>
        <time>2013-06-11T08:03:49Z</time>
      </trkpt>
      <trkpt lat="47.18623" lon="4.67035">
        <ele>299</ele>
        <time>2013-06-11T08:04:05Z</time>
      </trkpt>
      <trkpt lat="47.18616" lon="4.67063">
        <ele>300</ele>
        <time>2013-06-11T08:04:20Z</time>
      </trkpt>
      <trkpt lat="47.18612" lon="4.67076">
        <ele>300</ele>
        <time>2013-06-11T08:04:25Z</time>
      </trkpt>
      <trkpt lat="47.18605" lon="4.67099">
        <ele>300</ele>
        <time>2013-06-11T08:04:41Z</time>
      </trkpt>
      <trkpt lat="47.18613" lon="4.67115">
        <ele>298</ele>
        <time>2013-06-11T08:05:42Z</time>
      </trkpt>
      <trkpt lat="47.18605" lon="4.67149">
        <ele>297</ele>
        <time>2013-06-11T08:05:59Z</time>
      </trkpt>
      <trkpt lat="47.18598" lon="4.67176">
        <ele>296</ele>
        <time>2013-06-11T08:06:11Z</time>
      </trkpt>
      <trkpt lat="47.18593" lon="4.67202">
        <ele>296</ele>
        <time>2013-06-11T08:06:24Z</time>
      </trkpt>
      <trkpt lat="47.18584" lon="4.6723">
        <ele>296</ele>
        <time>2013-06-11T08:06:41Z</time>
      </trkpt>
      <trkpt lat="47.18579" lon="4.67256">
        <ele>296</ele>
        <time>2013-06-11T08:06:54Z</time>
      </trkpt>
      <trkpt lat="47.18578" lon="4.67282">
        <ele>297</ele>
        <time>2013-06-11T08:07:06Z</time>
      </trkpt>
      <trkpt lat="47.18574" lon="4.67307">
        <ele>298</ele>
        <time>2013-06-11T08:07:19Z</time>
      </trkpt>
      <trkpt lat="47.18569" lon="4.67337">
        <ele>299</ele>
        <time>2013-06-11T08:07:40Z</time>
      </trkpt>
      <trkpt lat="47.18565" lon="4.67359">
        <ele>299</ele>
        <time>2013-06-11T08:07:50Z</time>
      </trkpt>
      <trkpt lat="47.18562" lon="4.67383">
        <ele>300</ele>
        <time>2013-06-11T08:08:00Z</time>
      </trkpt>
      <trkpt lat="47.18553" lon="4.67414">
        <ele>300</ele>
        <time>2013-06-11T08:08:19Z</time>
      </trkpt>
      <trkpt lat="47.18551" lon="4.67435">
        <ele>300</ele>
        <time>2013-06-11T08:08:32Z</time>
      </trkpt>
      <trkpt lat="47.18557" lon="4.67457">
        <ele>300</ele>
        <time>2013-06-11T08:08:41Z</time>
      </trkpt>
      <trkpt lat="47.18566" lon="4.67466">
        <ele>301</ele>
        <time>2013-06-11T08:08:52Z</time>
      </trkpt>
      <trkpt lat="47.18575" lon="4.67469">
        <ele>301</ele>
        <time>2013-06-11T08:09:02Z</time>
      </trkpt>
      <trkpt lat="47.18584" lon="4.6747">
        <ele>301</ele>
        <time>2013-06-11T08:09:08Z</time>
      </trkpt>
      <trkpt lat="47.18599" lon="4.6748">
        <ele>301</ele>
        <time>2013-06-11T08:09:21Z</time>
      </trkpt>
      <trkpt lat="47.18611" lon="4.67493">
        <ele>302</ele>
        <time>2013-06-11T08:09:39Z</time>
      </trkpt>
      <trkpt lat="47.18629" lon="4.67503">
        <ele>304</ele>
        <time>2013-06-11T08:09:53Z</time>
      </trkpt>
      <trkpt lat="47.18645" lon="4.67508">
        <ele>306</ele>
        <time>2013-06-11T08:10:06Z</time>
      </trkpt>
      <trkpt lat="47.18654" lon="4.67509">
        <ele>308</ele>
        <time>2013-06-11T08:10:14Z</time>
      </trkpt>
      <trkpt lat="47.18695" lon="4.67519">
        <ele>311</ele>
        <time>2013-06-11T08:10:44Z</time>
      </trkpt>
      <trkpt lat="47.18708" lon="4.6753">
        <ele>309</ele>
        <time>2013-06-11T08:10:58Z</time>
      </trkpt>
      <trkpt lat="47.18706" lon="4.67545">
        <ele>305</ele>
        <time>2013-06-11T08:11:08Z</time>
      </trkpt>
      <trkpt lat="47.18701" lon="4.67555">
        <ele>303</ele>
        <time>2013-06-11T08:11:13Z</time>
      </trkpt>
      <trkpt lat="47.18694" lon="4.67563">
        <ele>301</ele>
        <time>2013-06-11T08:11:19Z</time>
      </trkpt>
      <trkpt lat="47.18688" lon="4.6757">
        <ele>300</ele>
        <time>2013-06-11T08:11:25Z</time>
      </trkpt>
      <trkpt lat="47.18681" lon="4.67578">
        <ele>299</ele>
        <time>2013-06-11T08:11:32Z</time>
      </trkpt>
      <trkpt lat="47.18672" lon="4.67586">
        <ele>299</ele>
        <time>2013-06-11T08:11:41Z</time>
      </trkpt>
      <trkpt lat="47.18665" lon="4.67596">
        <ele>299</ele>
        <time>2013-06-11T08:11:49Z</time>
      </trkpt>
      <trkpt lat="47.18658" lon="4.67605">
        <ele>299</ele>
        <time>2013-06-11T08:11:56Z</time>
      </trkpt>
      <trkpt lat="47.18652" lon="4.67614">
        <ele>299</ele>
        <time>2013-06-11T08:12:03Z</time>
      </trkpt>
      <trkpt lat="47.18645" lon="4.67627">
        <ele>300</ele>
        <time>2013-06-11T08:12:11Z</time>
      </trkpt>
      <trkpt lat="47.1864" lon="4.67637">
        <ele>300</ele>
        <time>2013-06-11T08:12:19Z</time>
      </trkpt>
      <trkpt lat="47.18637" lon="4.67649">
        <ele>300</ele>
        <time>2013-06-11T08:12:26Z</time>
      </trkpt>
      <trkpt lat="47.18631" lon="4.67672">
        <ele>301</ele>
        <time>2013-06-11T08:12:40Z</time>
      </trkpt>
      <trkpt lat="47.18632" lon="4.6769">
        <ele>302</ele>
        <time>2013-06-11T08:12:51Z</time>
      </trkpt>
      <trkpt lat="47.1864" lon="4.67709">
        <ele>302</ele>
        <time>2013-06-11T08:13:20Z</time>
      </trkpt>
      <trkpt lat="47.18645" lon="4.67726">
        <ele>299</ele>
        <time>2013-06-11T08:13:52Z</time>
      </trkpt>
      <trkpt lat="47.18643" lon="4.67748">
        <ele>298</ele>
        <time>2013-06-11T08:14:04Z</time>
      </trkpt>
      <trkpt lat="47.18643" lon="4.67763">
        <ele>298</ele>
        <time>2013-06-11T08:14:12Z</time>
      </trkpt>
      <trkpt lat="47.18644" lon="4.67778">
        <ele>298</ele>
        <time>2013-06-11T08:14:20Z</time>
      </trkpt>
      <trkpt lat="47.18642" lon="4.67794">
        <ele>298</ele>
        <time>2013-06-11T08:14:30Z</time>
      </trkpt>
      <trkpt lat="47.1864" lon="4.67808">
        <ele>298</ele>
        <time>2013-06-11T08:14:40Z</time>
      </trkpt>
      <trkpt lat="47.1864" lon="4.67821">
        <ele>298</ele>
        <time>2013-06-11T08:14:49Z</time>
      </trkpt>
      <trkpt lat="47.18635" lon="4.67844">
        <ele>298</ele>
        <time>2013-06-11T08:15:06Z</time>
      </trkpt>
      <trkpt lat="47.18624" lon="4.67857">
        <ele>299</ele>
        <time>2013-06-11T08:15:21Z</time>
      </trkpt>
      <trkpt lat="47.18609" lon="4.67866">
        <ele>300</ele>
        <time>2013-06-11T08:15:36Z</time>
      </trkpt>
      <trkpt lat="47.18595" lon="4.67879">
        <ele>302</ele>
        <time>2013-06-11T08:15:56Z</time>
      </trkpt>
      <trkpt lat="47.18594" lon="4.67891">
        <ele>303</ele>
        <time>2013-06-11T08:16:02Z</time>
      </trkpt>
      <trkpt lat="47.18602" lon="4.6791">
        <ele>304</ele>
        <time>2013-06-11T08:16:15Z</time>
      </trkpt>
      <trkpt lat="47.18611" lon="4.67913">
        <ele>305</ele>
        <time>2013-06-11T08:16:22Z</time>
      </trkpt>
      <trkpt lat="47.18624" lon="4.67912">
        <ele>306</ele>
        <time>2013-06-11T08:16:35Z</time>
      </trkpt>
      <trkpt lat="47.18639" lon="4.6791">
        <ele>309</ele>
        <time>2013-06-11T08:16:51Z</time>
      </trkpt>
      <trkpt lat="47.18651" lon="4.67919">
        <ele>311</ele>
        <time>2013-06-11T08:17:04Z</time>
      </trkpt>
      <trkpt lat="47.18657" lon="4.67935">
        <ele>312</ele>
        <time>2013-06-11T08:17:16Z</time>
      </trkpt>
      <trkpt lat="47.18656" lon="4.67947">
        <ele>312</ele>
        <time>2013-06-11T08:17:25Z</time>
      </trkpt>
      <trkpt lat="47.18654" lon="4.6797">
        <ele>313</ele>
        <time>2013-06-11T08:17:44Z</time>
      </trkpt>
      <trkpt lat="47.18653" lon="4.67994">
        <ele>315</ele>
        <time>2013-06-11T08:18:01Z</time>
      </trkpt>
      <trkpt lat="47.18654" lon="4.68018">
        <ele>317</ele>
        <time>2013-06-11T08:18:28Z</time>
      </trkpt>
      <trkpt lat="47.1866" lon="4.68045">
        <ele>319</ele>
        <time>2013-06-11T08:18:48Z</time>
      </trkpt>
      <trkpt lat="47.18671" lon="4.68063">
        <ele>320</ele>
        <time>2013-06-11T08:19:01Z</time>
      </trkpt>
      <trkpt lat="47.18679" lon="4.6807">
        <ele>320</ele>
        <time>2013-06-11T08:19:09Z</time>
      </trkpt>
      <trkpt lat="47.18694" lon="4.68077">
        <ele>323</ele>
        <time>2013-06-11T08:19:24Z</time>
      </trkpt>
      <trkpt lat="47.18703" lon="4.68083">
        <ele>324</ele>
        <time>2013-06-11T08:19:33Z</time>
      </trkpt>
      <trkpt lat="47.18718" lon="4.68095">
        <ele>325</ele>
        <time>2013-06-11T08:19:50Z</time>
      </trkpt>
      <trkpt lat="47.18724" lon="4.68104">
        <ele>327</ele>
        <time>2013-06-11T08:19:58Z</time>
      </trkpt>
      <trkpt lat="47.18733" lon="4.68115">
        <ele>328</ele>
        <time>2013-06-11T08:20:14Z</time>
      </trkpt>
      <trkpt lat="47.18741" lon="4.68127">
        <ele>330</ele>
        <time>2013-06-11T08:20:25Z</time>
      </trkpt>
      <trkpt lat="47.18746" lon="4.68141">
        <ele>331</ele>
        <time>2013-06-11T08:20:36Z</time>
      </trkpt>
      <trkpt lat="47.18749" lon="4.68159">
        <ele>332</ele>
        <time>2013-06-11T08:20:53Z</time>
      </trkpt>
      <trkpt lat="47.18756" lon="4.68179">
        <ele>334</ele>
        <time>2013-06-11T08:21:10Z</time>
      </trkpt>
      <trkpt lat="47.18761" lon="4.68193">
        <ele>335</ele>
        <time>2013-06-11T08:21:21Z</time>
      </trkpt>
      <trkpt lat="47.18766" lon="4.68204">
        <ele>336</ele>
        <time>2013-06-11T08:21:31Z</time>
      </trkpt>
      <trkpt lat="47.18774" lon="4.68225">
        <ele>337</ele>
        <time>2013-06-11T08:21:49Z</time>
      </trkpt>
      <trkpt lat="47.18781" lon="4.6825">
        <ele>340</ele>
        <time>2013-06-11T08:22:27Z</time>
      </trkpt>
      <trkpt lat="47.18783" lon="4.68268">
        <ele>345</ele>
        <time>2013-06-11T08:22:48Z</time>
      </trkpt>
      <trkpt lat="47.1878" lon="4.68291">
        <ele>348</ele>
        <time>2013-06-11T08:23:23Z</time>
      </trkpt>
      <trkpt lat="47.1877" lon="4.68314">
        <ele>352</ele>
        <time>2013-06-11T08:23:58Z</time>
      </trkpt>
      <trkpt lat="47.18761" lon="4.68334">
        <ele>356</ele>
        <time>2013-06-11T08:24:17Z</time>
      </trkpt>
      <trkpt lat="47.18754" lon="4.68352">
        <ele>360</ele>
        <time>2013-06-11T08:24:35Z</time>
      </trkpt>
      <trkpt lat="47.18749" lon="4.68362">
        <ele>363</ele>
        <time>2013-06-11T08:24:44Z</time>
      </trkpt>
      <trkpt lat="47.18743" lon="4.68373">
        <ele>366</ele>
        <time>2013-06-11T08:24:57Z</time>
      </trkpt>
      <trkpt lat="47.1873" lon="4.68395">
        <ele>369</ele>
        <time>2013-06-11T08:25:27Z</time>
      </trkpt>
      <trkpt lat="47.18726" lon="4.68398">
        <ele>371</ele>
        <time>2013-06-11T08:25:37Z</time>
      </trkpt>
      <trkpt lat="47.1871" lon="4.68408">
        <ele>373</ele>
        <time>2013-06-11T08:25:57Z</time>
      </trkpt>
      <trkpt lat="47.18701" lon="4.6842">
        <ele>374</ele>
        <time>2013-06-11T08:26:24Z</time>
      </trkpt>
      <trkpt lat="47.18686" lon="4.68441">
        <ele>375</ele>
        <time>2013-06-11T08:27:13Z</time>
      </trkpt>
      <trkpt lat="47.18676" lon="4.6846">
        <ele>377</ele>
        <time>2013-06-11T08:27:32Z</time>
      </trkpt>
      <trkpt lat="47.18668" lon="4.68477">
        <ele>380</ele>
        <time>2013-06-11T08:27:48Z</time>
      </trkpt>
      <trkpt lat="47.1866" lon="4.68486">
        <ele>382</ele>
        <time>2013-06-11T08:27:58Z</time>
      </trkpt>
      <trkpt lat="47.18655" lon="4.68497">
        <ele>384</ele>
        <time>2013-06-11T08:28:25Z</time>
      </trkpt>
      <trkpt lat="47.18656" lon="4.68509">
        <ele>383</ele>
        <time>2013-06-11T08:30:02Z</time>
      </trkpt>
      <trkpt lat="47.1864" lon="4.68519">
        <ele>383</ele>
        <time>2013-06-11T08:33:02Z</time>
      </trkpt>
      <trkpt lat="47.18629" lon="4.68536">
        <ele>385</ele>
        <time>2013-06-11T08:33:17Z</time>
      </trkpt>
      <trkpt lat="47.18618" lon="4.68553">
        <ele>386</ele>
        <time>2013-06-11T08:33:34Z</time>
      </trkpt>
      <trkpt lat="47.18608" lon="4.68574">
        <ele>389</ele>
        <time>2013-06-11T08:33:49Z</time>
      </trkpt>
      <trkpt lat="47.18603" lon="4.68604">
        <ele>392</ele>
        <time>2013-06-11T08:34:10Z</time>
      </trkpt>
      <trkpt lat="47.18604" lon="4.68628">
        <ele>394</ele>
        <time>2013-06-11T08:34:23Z</time>
      </trkpt>
      <trkpt lat="47.18604" lon="4.68651">
        <ele>397</ele>
        <time>2013-06-11T08:34:41Z</time>
      </trkpt>
      <trkpt lat="47.18607" lon="4.68671">
        <ele>401</ele>
        <time>2013-06-11T08:34:59Z</time>
      </trkpt>
      <trkpt lat="47.18607" lon="4.68692">
        <ele>404</ele>
        <time>2013-06-11T08:35:16Z</time>
      </trkpt>
      <trkpt lat="47.1861" lon="4.68714">
        <ele>405</ele>
        <time>2013-06-11T08:35:34Z</time>
      </trkpt>
      <trkpt lat="47.18615" lon="4.68736">
        <ele>406</ele>
        <time>2013-06-11T08:35:49Z</time>
      </trkpt>
      <trkpt lat="47.18617" lon="4.68749">
        <ele>407</ele>
        <time>2013-06-11T08:36:00Z</time>
      </trkpt>
      <trkpt lat="47.18618" lon="4.68772">
        <ele>409</ele>
        <time>2013-06-11T08:36:16Z</time>
      </trkpt>
      <trkpt lat="47.18621" lon="4.68796">
        <ele>410</ele>
        <time>2013-06-11T08:36:30Z</time>
      </trkpt>
      <trkpt lat="47.18624" lon="4.68819">
        <ele>410</ele>
        <time>2013-06-11T08:36:44Z</time>
      </trkpt>
      <trkpt lat="47.18632" lon="4.68839">
        <ele>411</ele>
        <time>2013-06-11T08:37:05Z</time>
      </trkpt>
      <trkpt lat="47.18637" lon="4.68866">
        <ele>412</ele>
        <time>2013-06-11T08:37:31Z</time>
      </trkpt>
      <trkpt lat="47.18641" lon="4.68888">
        <ele>412</ele>
        <time>2013-06-11T08:37:47Z</time>
      </trkpt>
      <trkpt lat="47.18643" lon="4.68905">
        <ele>411</ele>
        <time>2013-06-11T08:38:16Z</time>
      </trkpt>
      <trkpt lat="47.18653" lon="4.68918">
        <ele>410</ele>
        <time>2013-06-11T08:38:44Z</time>
      </trkpt>
      <trkpt lat="47.1866" lon="4.68926">
        <ele>412</ele>
        <time>2013-06-11T08:38:54Z</time>
      </trkpt>
      <trkpt lat="47.18672" lon="4.68943">
        <ele>415</ele>
        <time>2013-06-11T08:39:13Z</time>
      </trkpt>
      <trkpt lat="47.18686" lon="4.68954">
        <ele>419</ele>
        <time>2013-06-11T08:39:33Z</time>
      </trkpt>
      <trkpt lat="47.18698" lon="4.68971">
        <ele>420</ele>
        <time>2013-06-11T08:39:49Z</time>
      </trkpt>
      <trkpt lat="47.18709" lon="4.68992">
        <ele>423</ele>
        <time>2013-06-11T08:40:17Z</time>
      </trkpt>
      <trkpt lat="47.18715" lon="4.69015">
        <ele>426</ele>
        <time>2013-06-11T08:40:34Z</time>
      </trkpt>
      <trkpt lat="47.1872" lon="4.69052">
        <ele>430</ele>
        <time>2013-06-11T08:41:07Z</time>
      </trkpt>
      <trkpt lat="47.18723" lon="4.69065">
        <ele>433</ele>
        <time>2013-06-11T08:41:39Z</time>
      </trkpt>
      <trkpt lat="47.1872" lon="4.6907">
        <ele>434</ele>
        <time>2013-06-11T08:43:31Z</time>
      </trkpt>
      <trkpt lat="47.18738" lon="4.69082">
        <ele>431</ele>
        <time>2013-06-11T08:44:08Z</time>
      </trkpt>
      <trkpt lat="47.18754" lon="4.69083">
        <ele>430</ele>
        <time>2013-06-11T08:44:23Z</time>
      </trkpt>
      <trkpt lat="47.18775" lon="4.69105">
        <ele>430</ele>
        <time>2013-06-11T08:44:49Z</time>
      </trkpt>
      <trkpt lat="47.18795" lon="4.69115">
        <ele>431</ele>
        <time>2013-06-11T08:45:14Z</time>
      </trkpt>
      <trkpt lat="47.18812" lon="4.69124">
        <ele>432</ele>
        <time>2013-06-11T08:45:31Z</time>
      </trkpt>
      <trkpt lat="47.18826" lon="4.6914">
        <ele>433</ele>
        <time>2013-06-11T08:45:44Z</time>
      </trkpt>
      <trkpt lat="47.18839" lon="4.69153">
        <ele>435</ele>
        <time>2013-06-11T08:46:01Z</time>
      </trkpt>
      <trkpt lat="47.18853" lon="4.69165">
        <ele>438</ele>
        <time>2013-06-11T08:46:18Z</time>
      </trkpt>
      <trkpt lat="47.18869" lon="4.69171">
        <ele>440</ele>
        <time>2013-06-11T08:46:33Z</time>
      </trkpt>
      <trkpt lat="47.18884" lon="4.69181">
        <ele>444</ele>
        <time>2013-06-11T08:46:53Z</time>
      </trkpt>
      <trkpt lat="47.189" lon="4.69191">
        <ele>446</ele>
        <time>2013-06-11T08:47:10Z</time>
      </trkpt>
      <trkpt lat="47.18921" lon="4.69208">
        <ele>449</ele>
        <time>2013-06-11T08:47:34Z</time>
      </trkpt>
      <trkpt lat="47.18937" lon="4.69217">
        <ele>452</ele>
        <time>2013-06-11T08:47:52Z</time>
      </trkpt>
      <trkpt lat="47.1897" lon="4.69234">
        <ele>457</ele>
        <time>2013-06-11T08:48:30Z</time>
      </trkpt>
      <trkpt lat="47.18985" lon="4.69239">
        <ele>459</ele>
        <time>2013-06-11T08:48:41Z</time>
      </trkpt>
      <trkpt lat="47.19002" lon="4.69248">
        <ele>460</ele>
        <time>2013-06-11T08:49:00Z</time>
      </trkpt>
      <trkpt lat="47.19021" lon="4.69256">
        <ele>461</ele>
        <time>2013-06-11T08:49:23Z</time>
      </trkpt>
      <trkpt lat="47.19035" lon="4.69264">
        <ele>462</ele>
        <time>2013-06-11T08:49:37Z</time>
      </trkpt>
      <trkpt lat="47.19055" lon="4.69277">
        <ele>466</ele>
        <time>2013-06-11T08:50:00Z</time>
      </trkpt>
      <trkpt lat="47.19074" lon="4.69292">
        <ele>469</ele>
        <time>2013-06-11T08:50:25Z</time>
      </trkpt>
      <trkpt lat="47.19089" lon="4.69301">
        <ele>470</ele>
        <time>2013-06-11T08:50:41Z</time>
      </trkpt>
      <trkpt lat="47.19097" lon="4.69307">
        <ele>472</ele>
        <time>2013-06-11T08:50:47Z</time>
      </trkpt>
      <trkpt lat="47.19111" lon="4.69317">
        <ele>472</ele>
        <time>2013-06-11T08:51:04Z</time>
      </trkpt>
      <trkpt lat="47.19121" lon="4.6931">
        <ele>461</ele>
        <time>2013-06-11T08:51:32Z</time>
      </trkpt>
      <trkpt lat="47.19122" lon="4.69302">
        <ele>445</ele>
        <time>2013-06-11T08:54:15Z</time>
      </trkpt>
      <trkpt lat="47.1913" lon="4.69302">
        <ele>445</ele>
        <time>2013-06-11T08:55:41Z</time>
      </trkpt>
      <trkpt lat="47.19138" lon="4.69281">
        <ele>445</ele>
        <time>2013-06-11T08:56:36Z</time>
      </trkpt>
      <trkpt lat="47.19147" lon="4.69259">
        <ele>447</ele>
        <time>2013-06-11T08:56:55Z</time>
      </trkpt>
      <trkpt lat="47.19151" lon="4.69236">
        <ele>449</ele>
        <time>2013-06-11T08:57:07Z</time>
      </trkpt>
      <trkpt lat="47.19154" lon="4.69216">
        <ele>450</ele>
        <time>2013-06-11T08:57:19Z</time>
      </trkpt>
      <trkpt lat="47.1916" lon="4.69194">
        <ele>451</ele>
        <time>2013-06-11T08:57:35Z</time>
      </trkpt>
      <trkpt lat="47.19164" lon="4.69171">
        <ele>453</ele>
        <time>2013-06-11T08:57:48Z</time>
      </trkpt>
      <trkpt lat="47.19168" lon="4.69148">
        <ele>453</ele>
        <time>2013-06-11T08:58:02Z</time>
      </trkpt>
      <trkpt lat="47.19175" lon="4.69128">
        <ele>455</ele>
        <time>2013-06-11T08:58:16Z</time>
      </trkpt>
      <trkpt lat="47.19184" lon="4.69107">
        <ele>455</ele>
        <time>2013-06-11T08:58:29Z</time>
      </trkpt>
      <trkpt lat="47.19193" lon="4.69087">
        <ele>455</ele>
        <time>2013-06-11T08:58:42Z</time>
      </trkpt>
      <trkpt lat="47.19198" lon="4.69075">
        <ele>455</ele>
        <time>2013-06-11T08:58:51Z</time>
      </trkpt>
      <trkpt lat="47.19209" lon="4.69058">
        <ele>455</ele>
        <time>2013-06-11T08:59:04Z</time>
      </trkpt>
      <trkpt lat="47.19217" lon="4.69038">
        <ele>455</ele>
        <time>2013-06-11T08:59:18Z</time>
      </trkpt>
      <trkpt lat="47.19219" lon="4.69015">
        <ele>455</ele>
        <time>2013-06-11T08:59:33Z</time>
      </trkpt>
      <trkpt lat="47.19223" lon="4.68992">
        <ele>456</ele>
        <time>2013-06-11T08:59:46Z</time>
      </trkpt>
      <trkpt lat="47.19228" lon="4.6897">
        <ele>457</ele>
        <time>2013-06-11T08:59:58Z</time>
      </trkpt>
      <trkpt lat="47.19234" lon="4.68944">
        <ele>457</ele>
        <time>2013-06-11T09:00:12Z</time>
      </trkpt>
      <trkpt lat="47.19238" lon="4.68921">
        <ele>457</ele>
        <time>2013-06-11T09:00:25Z</time>
      </trkpt>
      <trkpt lat="47.19249" lon="4.68915">
        <ele>458</ele>
        <time>2013-06-11T09:00:44Z</time>
      </trkpt>
      <trkpt lat="47.19262" lon="4.68925">
        <ele>460</ele>
        <time>2013-06-11T09:01:01Z</time>
      </trkpt>
      <trkpt lat="47.19279" lon="4.68933">
        <ele>463</ele>
        <time>2013-06-11T09:01:20Z</time>
      </trkpt>
      <trkpt lat="47.19295" lon="4.68938">
        <ele>465</ele>
        <time>2013-06-11T09:01:36Z</time>
      </trkpt>
      <trkpt lat="47.19306" lon="4.68947">
        <ele>467</ele>
        <time>2013-06-11T09:01:48Z</time>
      </trkpt>
      <trkpt lat="47.19315" lon="4.68949">
        <ele>467</ele>
        <time>2013-06-11T09:01:56Z</time>
      </trkpt>
      <trkpt lat="47.19329" lon="4.68958">
        <ele>468</ele>
        <time>2013-06-11T09:02:12Z</time>
      </trkpt>
      <trkpt lat="47.19344" lon="4.68967">
        <ele>470</ele>
        <time>2013-06-11T09:02:27Z</time>
      </trkpt>
      <trkpt lat="47.19359" lon="4.68975">
        <ele>470</ele>
        <time>2013-06-11T09:02:38Z</time>
      </trkpt>
      <trkpt lat="47.19374" lon="4.68987">
        <ele>470</ele>
        <time>2013-06-11T09:02:51Z</time>
      </trkpt>
      <trkpt lat="47.19392" lon="4.68993">
        <ele>470</ele>
        <time>2013-06-11T09:03:10Z</time>
      </trkpt>
      <trkpt lat="47.19406" lon="4.68997">
        <ele>470</ele>
        <time>2013-06-11T09:03:25Z</time>
      </trkpt>
      <trkpt lat="47.19422" lon="4.69007">
        <ele>472</ele>
        <time>2013-06-11T09:03:40Z</time>
      </trkpt>
      <trkpt lat="47.19438" lon="4.69017">
        <ele>473</ele>
        <time>2013-06-11T09:03:55Z</time>
      </trkpt>
      <trkpt lat="47.19453" lon="4.69023">
        <ele>474</ele>
        <time>2013-06-11T09:04:09Z</time>
      </trkpt>
      <trkpt lat="47.19462" lon="4.69025">
        <ele>475</ele>
        <time>2013-06-11T09:04:17Z</time>
      </trkpt>
      <trkpt lat="47.19475" lon="4.69026">
        <ele>475</ele>
        <time>2013-06-11T09:04:28Z</time>
      </trkpt>
      <trkpt lat="47.19493" lon="4.69032">
        <ele>475</ele>
        <time>2013-06-11T09:04:45Z</time>
      </trkpt>
      <trkpt lat="47.19512" lon="4.69045">
        <ele>475</ele>
        <time>2013-06-11T09:05:07Z</time>
      </trkpt>
      <trkpt lat="47.19527" lon="4.69054">
        <ele>474</ele>
        <time>2013-06-11T09:05:21Z</time>
      </trkpt>
      <trkpt lat="47.19537" lon="4.69056">
        <ele>474</ele>
        <time>2013-06-11T09:05:30Z</time>
      </trkpt>
      <trkpt lat="47.19557" lon="4.69055">
        <ele>475</ele>
        <time>2013-06-11T09:05:53Z</time>
      </trkpt>
      <trkpt lat="47.19571" lon="4.69043">
        <ele>477</ele>
        <time>2013-06-11T09:06:04Z</time>
      </trkpt>
      <trkpt lat="47.19579" lon="4.69038">
        <ele>478</ele>
        <time>2013-06-11T09:06:10Z</time>
      </trkpt>
      <trkpt lat="47.19594" lon="4.69028">
        <ele>479</ele>
        <time>2013-06-11T09:06:23Z</time>
      </trkpt>
      <trkpt lat="47.19605" lon="4.69021">
        <ele>479</ele>
        <time>2013-06-11T09:06:33Z</time>
      </trkpt>
      <trkpt lat="47.19618" lon="4.69008">
        <ele>478</ele>
        <time>2013-06-11T09:06:47Z</time>
      </trkpt>
      <trkpt lat="47.19634" lon="4.69001">
        <ele>476</ele>
        <time>2013-06-11T09:07:08Z</time>
      </trkpt>
      <trkpt lat="47.19645" lon="4.68985">
        <ele>476</ele>
        <time>2013-06-11T09:07:24Z</time>
      </trkpt>
      <trkpt lat="47.19657" lon="4.68968">
        <ele>476</ele>
        <time>2013-06-11T09:07:39Z</time>
      </trkpt>
      <trkpt lat="47.19667" lon="4.68951">
        <ele>476</ele>
        <time>2013-06-11T09:07:53Z</time>
      </trkpt>
      <trkpt lat="47.1968" lon="4.68936">
        <ele>477</ele>
        <time>2013-06-11T09:08:04Z</time>
      </trkpt>
      <trkpt lat="47.19684" lon="4.68933">
        <ele>469</ele>
        <time>2013-06-11T09:10:34Z</time>
      </trkpt>
      <trkpt lat="47.19699" lon="4.68916">
        <ele>468</ele>
        <time>2013-06-11T09:11:21Z</time>
      </trkpt>
      <trkpt lat="47.19709" lon="4.68897">
        <ele>467</ele>
        <time>2013-06-11T09:11:34Z</time>
      </trkpt>
      <trkpt lat="47.19719" lon="4.68879">
        <ele>467</ele>
        <time>2013-06-11T09:11:47Z</time>
      </trkpt>
      <trkpt lat="47.19728" lon="4.68859">
        <ele>467</ele>
        <time>2013-06-11T09:11:59Z</time>
      </trkpt>
      <trkpt lat="47.19736" lon="4.68838">
        <ele>467</ele>
        <time>2013-06-11T09:12:11Z</time>
      </trkpt>
      <trkpt lat="47.19746" lon="4.68818">
        <ele>466</ele>
        <time>2013-06-11T09:12:24Z</time>
      </trkpt>
      <trkpt lat="47.19754" lon="4.68797">
        <ele>467</ele>
        <time>2013-06-11T09:12:39Z</time>
      </trkpt>
      <trkpt lat="47.19766" lon="4.68782">
        <ele>468</ele>
        <time>2013-06-11T09:12:57Z</time>
      </trkpt>
      <trkpt lat="47.19782" lon="4.68764">
        <ele>470</ele>
        <time>2013-06-11T09:13:18Z</time>
      </trkpt>
      <trkpt lat="47.19798" lon="4.68749">
        <ele>472</ele>
        <time>2013-06-11T09:13:33Z</time>
      </trkpt>
      <trkpt lat="47.19812" lon="4.68738">
        <ele>474</ele>
        <time>2013-06-11T09:13:51Z</time>
      </trkpt>
      <trkpt lat="47.19826" lon="4.68726">
        <ele>475</ele>
        <time>2013-06-11T09:14:06Z</time>
      </trkpt>
      <trkpt lat="47.19839" lon="4.68709">
        <ele>476</ele>
        <time>2013-06-11T09:14:24Z</time>
      </trkpt>
      <trkpt lat="47.19852" lon="4.68689">
        <ele>477</ele>
        <time>2013-06-11T09:14:35Z</time>
      </trkpt>
      <trkpt lat="47.19863" lon="4.68672">
        <ele>479</ele>
        <time>2013-06-11T09:14:46Z</time>
      </trkpt>
      <trkpt lat="47.19878" lon="4.68654">
        <ele>481</ele>
        <time>2013-06-11T09:15:05Z</time>
      </trkpt>
      <trkpt lat="47.19892" lon="4.68643">
        <ele>481</ele>
        <time>2013-06-11T09:15:19Z</time>
      </trkpt>
      <trkpt lat="47.19908" lon="4.68638">
        <ele>480</ele>
        <time>2013-06-11T09:15:34Z</time>
      </trkpt>
      <trkpt lat="47.19927" lon="4.6864">
        <ele>479</ele>
        <time>2013-06-11T09:15:55Z</time>
      </trkpt>
      <trkpt lat="47.19945" lon="4.68637">
        <ele>476</ele>
        <time>2013-06-11T09:16:11Z</time>
      </trkpt>
      <trkpt lat="47.19961" lon="4.68637">
        <ele>474</ele>
        <time>2013-06-11T09:16:24Z</time>
      </trkpt>
      <trkpt lat="47.19987" lon="4.68637">
        <ele>473</ele>
        <time>2013-06-11T09:16:45Z</time>
      </trkpt>
      <trkpt lat="47.20003" lon="4.68635">
        <ele>472</ele>
        <time>2013-06-11T09:16:58Z</time>
      </trkpt>
      <trkpt lat="47.20022" lon="4.68629">
        <ele>471</ele>
        <time>2013-06-11T09:17:13Z</time>
      </trkpt>
      <trkpt lat="47.20038" lon="4.68626">
        <ele>470</ele>
        <time>2013-06-11T09:17:28Z</time>
      </trkpt>
      <trkpt lat="47.20046" lon="4.68625">
        <ele>469</ele>
        <time>2013-06-11T09:17:35Z</time>
      </trkpt>
      <trkpt lat="47.20061" lon="4.6862">
        <ele>468</ele>
        <time>2013-06-11T09:17:48Z</time>
      </trkpt>
      <trkpt lat="47.20077" lon="4.68618">
        <ele>468</ele>
        <time>2013-06-11T09:18:01Z</time>
      </trkpt>
      <trkpt lat="47.20093" lon="4.68614">
        <ele>468</ele>
        <time>2013-06-11T09:18:15Z</time>
      </trkpt>
      <trkpt lat="47.20107" lon="4.68616">
        <ele>467</ele>
        <time>2013-06-11T09:18:27Z</time>
      </trkpt>
      <trkpt lat="47.20125" lon="4.68615">
        <ele>467</ele>
        <time>2013-06-11T09:18:44Z</time>
      </trkpt>
      <trkpt lat="47.20143" lon="4.68609">
        <ele>467</ele>
        <time>2013-06-11T09:19:00Z</time>
      </trkpt>
      <trkpt lat="47.20157" lon="4.68608">
        <ele>467</ele>
        <time>2013-06-11T09:19:11Z</time>
      </trkpt>
      <trkpt lat="47.2017" lon="4.6861">
        <ele>467</ele>
        <time>2013-06-11T09:19:24Z</time>
      </trkpt>
      <trkpt lat="47.20179" lon="4.68611">
        <ele>468</ele>
        <time>2013-06-11T09:19:29Z</time>
      </trkpt>
      <trkpt lat="47.20187" lon="4.68611">
        <ele>468</ele>
        <time>2013-06-11T09:19:36Z</time>
      </trkpt>
      <trkpt lat="47.20205" lon="4.68601">
        <ele>468</ele>
        <time>2013-06-11T09:19:51Z</time>
      </trkpt>
      <trkpt lat="47.2022" lon="4.68594">
        <ele>468</ele>
        <time>2013-06-11T09:20:00Z</time>
      </trkpt>
      <trkpt lat="47.20236" lon="4.68592">
        <ele>467</ele>
        <time>2013-06-11T09:20:12Z</time>
      </trkpt>
      <trkpt lat="47.20253" lon="4.68591">
        <ele>464</ele>
        <time>2013-06-11T09:20:29Z</time>
      </trkpt>
      <trkpt lat="47.20268" lon="4.68586">
        <ele>462</ele>
        <time>2013-06-11T09:20:43Z</time>
      </trkpt>
      <trkpt lat="47.20278" lon="4.68583">
        <ele>460</ele>
        <time>2013-06-11T09:20:54Z</time>
      </trkpt>
      <trkpt lat="47.20293" lon="4.68577">
        <ele>460</ele>
        <time>2013-06-11T09:21:09Z</time>
      </trkpt>
      <trkpt lat="47.2031" lon="4.68574">
        <ele>460</ele>
        <time>2013-06-11T09:21:21Z</time>
      </trkpt>
      <trkpt lat="47.20326" lon="4.68573">
        <ele>459</ele>
        <time>2013-06-11T09:21:32Z</time>
      </trkpt>
      <trkpt lat="47.2034" lon="4.68567">
        <ele>458</ele>
        <time>2013-06-11T09:21:42Z</time>
      </trkpt>
      <trkpt lat="47.20358" lon="4.68559">
        <ele>456</ele>
        <time>2013-06-11T09:21:58Z</time>
      </trkpt>
      <trkpt lat="47.20372" lon="4.68555">
        <ele>455</ele>
        <time>2013-06-11T09:22:10Z</time>
      </trkpt>
      <trkpt lat="47.20389" lon="4.68549">
        <ele>454</ele>
        <time>2013-06-11T09:22:27Z</time>
      </trkpt>
      <trkpt lat="47.20392" lon="4.68544">
        <ele>455</ele>
        <time>2013-06-11T09:23:01Z</time>
      </trkpt>
      <trkpt lat="47.20403" lon="4.68542">
        <ele>450</ele>
        <time>2013-06-11T09:23:45Z</time>
      </trkpt>
      <trkpt lat="47.20406" lon="4.68537">
        <ele>447</ele>
        <time>2013-06-11T09:24:16Z</time>
      </trkpt>
      <trkpt lat="47.20424" lon="4.68529">
        <ele>446</ele>
        <time>2013-06-11T09:24:50Z</time>
      </trkpt>
      <trkpt lat="47.20438" lon="4.68516">
        <ele>448</ele>
        <time>2013-06-11T09:25:13Z</time>
      </trkpt>
      <trkpt lat="47.20457" lon="4.68504">
        <ele>452</ele>
        <time>2013-06-11T09:25:33Z</time>
      </trkpt>
      <trkpt lat="47.20472" lon="4.68499">
        <ele>455</ele>
        <time>2013-06-11T09:25:43Z</time>
      </trkpt>
      <trkpt lat="47.20483" lon="4.68483">
        <ele>452</ele>
        <time>2013-06-11T09:27:10Z</time>
      </trkpt>
      <trkpt lat="47.20484" lon="4.68468">
        <ele>452</ele>
        <time>2013-06-11T09:27:19Z</time>
      </trkpt>
      <trkpt lat="47.20483" lon="4.68454">
        <ele>452</ele>
        <time>2013-06-11T09:27:27Z</time>
      </trkpt>
      <trkpt lat="47.20479" lon="4.68442">
        <ele>453</ele>
        <time>2013-06-11T09:27:34Z</time>
      </trkpt>
      <trkpt lat="47.20474" lon="4.68432">
        <ele>453</ele>
        <time>2013-06-11T09:27:42Z</time>
      </trkpt>
      <trkpt lat="47.20467" lon="4.68422">
        <ele>453</ele>
        <time>2013-06-11T09:27:50Z</time>
      </trkpt>
      <trkpt lat="47.20459" lon="4.68403">
        <ele>454</ele>
        <time>2013-06-11T09:28:06Z</time>
      </trkpt>
      <trkpt lat="47.20449" lon="4.68384">
        <ele>455</ele>
        <time>2013-06-11T09:28:22Z</time>
      </trkpt>
      <trkpt lat="47.20436" lon="4.68366">
        <ele>457</ele>
        <time>2013-06-11T09:28:35Z</time>
      </trkpt>
      <trkpt lat="47.20428" lon="4.68347">
        <ele>457</ele>
        <time>2013-06-11T09:28:48Z</time>
      </trkpt>
      <trkpt lat="47.2042" lon="4.68327">
        <ele>458</ele>
        <time>2013-06-11T09:29:02Z</time>
      </trkpt>
      <trkpt lat="47.20414" lon="4.68319">
        <ele>458</ele>
        <time>2013-06-11T09:29:07Z</time>
      </trkpt>
      <trkpt lat="47.20403" lon="4.68302">
        <ele>459</ele>
        <time>2013-06-11T09:29:18Z</time>
      </trkpt>
      <trkpt lat="47.20398" lon="4.6829">
        <ele>459</ele>
        <time>2013-06-11T09:29:25Z</time>
      </trkpt>
      <trkpt lat="47.20393" lon="4.68278">
        <ele>460</ele>
        <time>2013-06-11T09:29:33Z</time>
      </trkpt>
      <trkpt lat="47.20389" lon="4.68254">
        <ele>460</ele>
        <time>2013-06-11T09:29:46Z</time>
      </trkpt>
      <trkpt lat="47.20388" lon="4.68241">
        <ele>460</ele>
        <time>2013-06-11T09:29:52Z</time>
      </trkpt>
      <trkpt lat="47.20385" lon="4.6822">
        <ele>460</ele>
        <time>2013-06-11T09:30:04Z</time>
      </trkpt>
      <trkpt lat="47.20377" lon="4.682">
        <ele>459</ele>
        <time>2013-06-11T09:30:17Z</time>
      </trkpt>
      <trkpt lat="47.20368" lon="4.68182">
        <ele>459</ele>
        <time>2013-06-11T09:30:31Z</time>
      </trkpt>
      <trkpt lat="47.20359" lon="4.68163">
        <ele>459</ele>
        <time>2013-06-11T09:30:47Z</time>
      </trkpt>
      <trkpt lat="47.20351" lon="4.68153">
        <ele>459</ele>
        <time>2013-06-11T09:30:55Z</time>
      </trkpt>
      <trkpt lat="47.20337" lon="4.68136">
        <ele>459</ele>
        <time>2013-06-11T09:31:10Z</time>
      </trkpt>
      <trkpt lat="47.20321" lon="4.68126">
        <ele>460</ele>
        <time>2013-06-11T09:31:22Z</time>
      </trkpt>
      <trkpt lat="47.20306" lon="4.68119">
        <ele>461</ele>
        <time>2013-06-11T09:31:32Z</time>
      </trkpt>
      <trkpt lat="47.20292" lon="4.68114">
        <ele>461</ele>
        <time>2013-06-11T09:31:41Z</time>
      </trkpt>
      <trkpt lat="47.2028" lon="4.68101">
        <ele>462</ele>
        <time>2013-06-11T09:31:55Z</time>
      </trkpt>
      <trkpt lat="47.2027" lon="4.68082">
        <ele>462</ele>
        <time>2013-06-11T09:32:12Z</time>
      </trkpt>
      <trkpt lat="47.20263" lon="4.68062">
        <ele>463</ele>
        <time>2013-06-11T09:32:27Z</time>
      </trkpt>
      <trkpt lat="47.20258" lon="4.68039">
        <ele>463</ele>
        <time>2013-06-11T09:32:40Z</time>
      </trkpt>
      <trkpt lat="47.20254" lon="4.68017">
        <ele>464</ele>
        <time>2013-06-11T09:32:52Z</time>
      </trkpt>
      <trkpt lat="47.2025" lon="4.67993">
        <ele>463</ele>
        <time>2013-06-11T09:33:03Z</time>
      </trkpt>
      <trkpt lat="47.20247" lon="4.67976">
        <ele>462</ele>
        <time>2013-06-11T09:33:12Z</time>
      </trkpt>
      <trkpt lat="47.20242" lon="4.67953">
        <ele>461</ele>
        <time>2013-06-11T09:33:25Z</time>
      </trkpt>
      <trkpt lat="47.20241" lon="4.6793">
        <ele>460</ele>
        <time>2013-06-11T09:33:38Z</time>
      </trkpt>
      <trkpt lat="47.20238" lon="4.67919">
        <ele>459</ele>
        <time>2013-06-11T09:33:44Z</time>
      </trkpt>
      <trkpt lat="47.20236" lon="4.67907">
        <ele>458</ele>
        <time>2013-06-11T09:33:52Z</time>
      </trkpt>
      <trkpt lat="47.20238" lon="4.67894">
        <ele>457</ele>
        <time>2013-06-11T09:34:00Z</time>
      </trkpt>
      <trkpt lat="47.2024" lon="4.67871">
        <ele>456</ele>
        <time>2013-06-11T09:34:16Z</time>
      </trkpt>
      <trkpt lat="47.20244" lon="4.67849">
        <ele>456</ele>
        <time>2013-06-11T09:34:29Z</time>
      </trkpt>
      <trkpt lat="47.2025" lon="4.67827">
        <ele>456</ele>
        <time>2013-06-11T09:34:43Z</time>
      </trkpt>
      <trkpt lat="47.20254" lon="4.67804">
        <ele>455</ele>
        <time>2013-06-11T09:35:03Z</time>
      </trkpt>
      <trkpt lat="47.20262" lon="4.67782">
        <ele>454</ele>
        <time>2013-06-11T09:35:17Z</time>
      </trkpt>
      <trkpt lat="47.2027" lon="4.67766">
        <ele>452</ele>
        <time>2013-06-11T09:35:27Z</time>
      </trkpt>
      <trkpt lat="47.20281" lon="4.67744">
        <ele>449</ele>
        <time>2013-06-11T09:35:45Z</time>
      </trkpt>
      <trkpt lat="47.2029" lon="4.67723">
        <ele>448</ele>
        <time>2013-06-11T09:36:00Z</time>
      </trkpt>
      <trkpt lat="47.20302" lon="4.67702">
        <ele>446</ele>
        <time>2013-06-11T09:36:14Z</time>
      </trkpt>
      <trkpt lat="47.20311" lon="4.67681">
        <ele>444</ele>
        <time>2013-06-11T09:36:29Z</time>
      </trkpt>
      <trkpt lat="47.20312" lon="4.67664">
        <ele>443</ele>
        <time>2013-06-11T09:36:38Z</time>
      </trkpt>
      <trkpt lat="47.20312" lon="4.6764">
        <ele>442</ele>
        <time>2013-06-11T09:36:49Z</time>
      </trkpt>
      <trkpt lat="47.2031" lon="4.67626">
        <ele>441</ele>
        <time>2013-06-11T09:36:56Z</time>
      </trkpt>
      <trkpt lat="47.20309" lon="4.67613">
        <ele>441</ele>
        <time>2013-06-11T09:37:03Z</time>
      </trkpt>
      <trkpt lat="47.20306" lon="4.67596">
        <ele>441</ele>
        <time>2013-06-11T09:37:12Z</time>
      </trkpt>
      <trkpt lat="47.20302" lon="4.67574">
        <ele>441</ele>
        <time>2013-06-11T09:37:24Z</time>
      </trkpt>
      <trkpt lat="47.20301" lon="4.67555">
        <ele>440</ele>
        <time>2013-06-11T09:37:34Z</time>
      </trkpt>
      <trkpt lat="47.20299" lon="4.67542">
        <ele>440</ele>
        <time>2013-06-11T09:37:41Z</time>
      </trkpt>
      <trkpt lat="47.20299" lon="4.67521">
        <ele>439</ele>
        <time>2013-06-11T09:37:53Z</time>
      </trkpt>
      <trkpt lat="47.203" lon="4.67508">
        <ele>438</ele>
        <time>2013-06-11T09:38:00Z</time>
      </trkpt>
      <trkpt lat="47.20301" lon="4.67488">
        <ele>438</ele>
        <time>2013-06-11T09:38:12Z</time>
      </trkpt>
      <trkpt lat="47.203" lon="4.67475">
        <ele>438</ele>
        <time>2013-06-11T09:38:19Z</time>
      </trkpt>
      <trkpt lat="47.203" lon="4.67451">
        <ele>438</ele>
        <time>2013-06-11T09:38:33Z</time>
      </trkpt>
      <trkpt lat="47.20301" lon="4.67434">
        <ele>438</ele>
        <time>2013-06-11T09:38:44Z</time>
      </trkpt>
      <trkpt lat="47.20301" lon="4.67426">
        <ele>438</ele>
        <time>2013-06-11T09:38:59Z</time>
      </trkpt>
      <trkpt lat="47.20299" lon="4.67417">
        <ele>436</ele>
        <time>2013-06-11T09:43:14Z</time>
      </trkpt>
      <trkpt lat="47.20304" lon="4.67405">
        <ele>434</ele>
        <time>2013-06-11T09:43:22Z</time>
      </trkpt>
      <trkpt lat="47.20313" lon="4.67382">
        <ele>433</ele>
        <time>2013-06-11T09:43:38Z</time>
      </trkpt>
      <trkpt lat="47.20316" lon="4.67359">
        <ele>431</ele>
        <time>2013-06-11T09:43:52Z</time>
      </trkpt>
      <trkpt lat="47.20315" lon="4.67335">
        <ele>431</ele>
        <time>2013-06-11T09:44:05Z</time>
      </trkpt>
      <trkpt lat="47.20315" lon="4.6731">
        <ele>430</ele>
        <time>2013-06-11T09:44:20Z</time>
      </trkpt>
      <trkpt lat="47.20313" lon="4.67287">
        <ele>430</ele>
        <time>2013-06-11T09:44:32Z</time>
      </trkpt>
      <trkpt lat="47.20314" lon="4.67263">
        <ele>429</ele>
        <time>2013-06-11T09:44:45Z</time>
      </trkpt>
      <trkpt lat="47.20314" lon="4.67251">
        <ele>428</ele>
        <time>2013-06-11T09:44:52Z</time>
      </trkpt>
      <trkpt lat="47.20315" lon="4.67229">
        <ele>427</ele>
        <time>2013-06-11T09:45:04Z</time>
      </trkpt>
      <trkpt lat="47.2031" lon="4.67204">
        <ele>427</ele>
        <time>2013-06-11T09:45:18Z</time>
      </trkpt>
      <trkpt lat="47.20304" lon="4.67182">
        <ele>426</ele>
        <time>2013-06-11T09:45:29Z</time>
      </trkpt>
      <trkpt lat="47.20295" lon="4.67163">
        <ele>426</ele>
        <time>2013-06-11T09:45:40Z</time>
      </trkpt>
      <trkpt lat="47.20289" lon="4.67141">
        <ele>426</ele>
        <time>2013-06-11T09:45:53Z</time>
      </trkpt>
      <trkpt lat="47.20284" lon="4.67117">
        <ele>426</ele>
        <time>2013-06-11T09:46:05Z</time>
      </trkpt>
      <trkpt lat="47.2028" lon="4.67095">
        <ele>425</ele>
        <time>2013-06-11T09:46:17Z</time>
      </trkpt>
      <trkpt lat="47.20275" lon="4.67079">
        <ele>424</ele>
        <time>2013-06-11T09:46:31Z</time>
      </trkpt>
      <trkpt lat="47.20265" lon="4.67061">
        <ele>423</ele>
        <time>2013-06-11T09:46:43Z</time>
      </trkpt>
      <trkpt lat="47.20259" lon="4.67052">
        <ele>423</ele>
        <time>2013-06-11T09:46:50Z</time>
      </trkpt>
      <trkpt lat="47.20246" lon="4.6704">
        <ele>423</ele>
        <time>2013-06-11T09:47:02Z</time>
      </trkpt>
      <trkpt lat="47.2024" lon="4.67028">
        <ele>423</ele>
        <time>2013-06-11T09:47:11Z</time>
      </trkpt>
      <trkpt lat="47.20234" lon="4.67004">
        <ele>423</ele>
        <time>2013-06-11T09:47:30Z</time>
      </trkpt>
      <trkpt lat="47.20222" lon="4.66989">
        <ele>423</ele>
        <time>2013-06-11T09:47:43Z</time>
      </trkpt>
      <trkpt lat="47.20209" lon="4.66973">
        <ele>421</ele>
        <time>2013-06-11T09:47:55Z</time>
      </trkpt>
      <trkpt lat="47.20205" lon="4.66949">
        <ele>418</ele>
        <time>2013-06-11T09:48:08Z</time>
      </trkpt>
      <trkpt lat="47.20212" lon="4.66927">
        <ele>415</ele>
        <time>2013-06-11T09:48:22Z</time>
      </trkpt>
      <trkpt lat="47.20218" lon="4.66918">
        <ele>413</ele>
        <time>2013-06-11T09:48:31Z</time>
      </trkpt>
      <trkpt lat="47.20233" lon="4.66909">
        <ele>411</ele>
        <time>2013-06-11T09:48:47Z</time>
      </trkpt>
      <trkpt lat="47.20249" lon="4.66901">
        <ele>408</ele>
        <time>2013-06-11T09:49:02Z</time>
      </trkpt>
      <trkpt lat="47.20254" lon="4.66878">
        <ele>406</ele>
        <time>2013-06-11T09:49:16Z</time>
      </trkpt>
      <trkpt lat="47.20244" lon="4.66859">
        <ele>405</ele>
        <time>2013-06-11T09:49:29Z</time>
      </trkpt>
      <trkpt lat="47.20231" lon="4.66846">
        <ele>403</ele>
        <time>2013-06-11T09:49:42Z</time>
      </trkpt>
      <trkpt lat="47.20215" lon="4.66842">
        <ele>402</ele>
        <time>2013-06-11T09:49:56Z</time>
      </trkpt>
      <trkpt lat="47.20201" lon="4.66842">
        <ele>401</ele>
        <time>2013-06-11T09:50:06Z</time>
      </trkpt>
      <trkpt lat="47.20186" lon="4.66846">
        <ele>401</ele>
        <time>2013-06-11T09:50:22Z</time>
      </trkpt>
      <trkpt lat="47.20179" lon="4.66854">
        <ele>401</ele>
        <time>2013-06-11T09:51:04Z</time>
      </trkpt>
      <trkpt lat="47.20172" lon="4.66858">
        <ele>400</ele>
        <time>2013-06-11T09:52:06Z</time>
      </trkpt>
      <trkpt lat="47.2016" lon="4.66869">
        <ele>401</ele>
        <time>2013-06-11T09:52:43Z</time>
      </trkpt>
      <trkpt lat="47.20143" lon="4.66878">
        <ele>401</ele>
        <time>2013-06-11T09:53:03Z</time>
      </trkpt>
      <trkpt lat="47.20133" lon="4.66883">
        <ele>403</ele>
        <time>2013-06-11T09:54:00Z</time>
      </trkpt>
      <trkpt lat="47.20114" lon="4.66892">
        <ele>401</ele>
        <time>2013-06-11T09:54:24Z</time>
      </trkpt>
      <trkpt lat="47.20089" lon="4.66909">
        <ele>402</ele>
        <time>2013-06-11T09:54:50Z</time>
      </trkpt>
      <trkpt lat="47.20073" lon="4.66917">
        <ele>403</ele>
        <time>2013-06-11T09:55:06Z</time>
      </trkpt>
      <trkpt lat="47.20056" lon="4.66915">
        <ele>399</ele>
        <time>2013-06-11T09:56:06Z</time>
      </trkpt>
      <trkpt lat="47.20043" lon="4.6691">
        <ele>398</ele>
        <time>2013-06-11T09:56:18Z</time>
      </trkpt>
      <trkpt lat="47.20028" lon="4.66904">
        <ele>399</ele>
        <time>2013-06-11T09:56:33Z</time>
      </trkpt>
      <trkpt lat="47.20014" lon="4.66903">
        <ele>398</ele>
        <time>2013-06-11T09:57:06Z</time>
      </trkpt>
      <trkpt lat="47.19994" lon="4.66889">
        <ele>400</ele>
        <time>2013-06-11T09:57:46Z</time>
      </trkpt>
      <trkpt lat="47.19982" lon="4.66869">
        <ele>401</ele>
        <time>2013-06-11T09:58:14Z</time>
      </trkpt>
      <trkpt lat="47.19976" lon="4.66858">
        <ele>401</ele>
        <time>2013-06-11T09:58:31Z</time>
      </trkpt>
      <trkpt lat="47.1996" lon="4.66852">
        <ele>401</ele>
        <time>2013-06-11T09:59:00Z</time>
      </trkpt>
      <trkpt lat="47.19945" lon="4.6685">
        <ele>402</ele>
        <time>2013-06-11T09:59:17Z</time>
      </trkpt>
      <trkpt lat="47.1994" lon="4.66835">
        <ele>401</ele>
        <time>2013-06-11T09:59:35Z</time>
      </trkpt>
      <trkpt lat="47.19937" lon="4.66812">
        <ele>400</ele>
        <time>2013-06-11T09:59:55Z</time>
      </trkpt>
      <trkpt lat="47.19942" lon="4.66802">
        <ele>400</ele>
        <time>2013-06-11T10:00:08Z</time>
      </trkpt>
      <trkpt lat="47.1995" lon="4.66794">
        <ele>400</ele>
        <time>2013-06-11T10:00:21Z</time>
      </trkpt>
      <trkpt lat="47.19948" lon="4.66794">
        <ele>395</ele>
        <time>2013-06-11T10:04:31Z</time>
      </trkpt>
      <trkpt lat="47.1994" lon="4.668">
        <ele>395</ele>
        <time>2013-06-11T10:04:39Z</time>
      </trkpt>
      <trkpt lat="47.19932" lon="4.66814">
        <ele>395</ele>
        <time>2013-06-11T10:04:50Z</time>
      </trkpt>
      <trkpt lat="47.19926" lon="4.66827">
        <ele>394</ele>
        <time>2013-06-11T10:05:02Z</time>
      </trkpt>
      <trkpt lat="47.19921" lon="4.66841">
        <ele>393</ele>
        <time>2013-06-11T10:05:15Z</time>
      </trkpt>
      <trkpt lat="47.19914" lon="4.66832">
        <ele>391</ele>
        <time>2013-06-11T10:06:09Z</time>
      </trkpt>
      <trkpt lat="47.19917" lon="4.66816">
        <ele>390</ele>
        <time>2013-06-11T10:06:21Z</time>
      </trkpt>
      <trkpt lat="47.19908" lon="4.66798">
        <ele>389</ele>
        <time>2013-06-11T10:06:43Z</time>
      </trkpt>
      <trkpt lat="47.19892" lon="4.66805">
        <ele>387</ele>
        <time>2013-06-11T10:07:08Z</time>
      </trkpt>
      <trkpt lat="47.19876" lon="4.66826">
        <ele>384</ele>
        <time>2013-06-11T10:07:36Z</time>
      </trkpt>
      <trkpt lat="47.19865" lon="4.66851">
        <ele>384</ele>
        <time>2013-06-11T10:07:56Z</time>
      </trkpt>
      <trkpt lat="47.19847" lon="4.66869">
        <ele>384</ele>
        <time>2013-06-11T10:08:17Z</time>
      </trkpt>
      <trkpt lat="47.19836" lon="4.66888">
        <ele>382</ele>
        <time>2013-06-11T10:08:28Z</time>
      </trkpt>
      <trkpt lat="47.19832" lon="4.6691">
        <ele>380</ele>
        <time>2013-06-11T10:08:40Z</time>
      </trkpt>
      <trkpt lat="47.19824" lon="4.66903">
        <ele>368</ele>
        <time>2013-06-11T10:12:40Z</time>
      </trkpt>
      <trkpt lat="47.1982" lon="4.66885">
        <ele>367</ele>
        <time>2013-06-11T10:13:35Z</time>
      </trkpt>
      <trkpt lat="47.19822" lon="4.66871">
        <ele>366</ele>
        <time>2013-06-11T10:13:44Z</time>
      </trkpt>
      <trkpt lat="47.19825" lon="4.66848">
        <ele>365</ele>
        <time>2013-06-11T10:13:59Z</time>
      </trkpt>
      <trkpt lat="47.19827" lon="4.66835">
        <ele>365</ele>
        <time>2013-06-11T10:14:06Z</time>
      </trkpt>
      <trkpt lat="47.19829" lon="4.66821">
        <ele>364</ele>
        <time>2013-06-11T10:14:15Z</time>
      </trkpt>
      <trkpt lat="47.19833" lon="4.66807">
        <ele>363</ele>
        <time>2013-06-11T10:14:24Z</time>
      </trkpt>
      <trkpt lat="47.19837" lon="4.66794">
        <ele>363</ele>
        <time>2013-06-11T10:14:33Z</time>
      </trkpt>
      <trkpt lat="47.19841" lon="4.66783">
        <ele>363</ele>
        <time>2013-06-11T10:14:40Z</time>
      </trkpt>
      <trkpt lat="47.19849" lon="4.66763">
        <ele>363</ele>
        <time>2013-06-11T10:14:54Z</time>
      </trkpt>
      <trkpt lat="47.19854" lon="4.66752">
        <ele>363</ele>
        <time>2013-06-11T10:15:01Z</time>
      </trkpt>
      <trkpt lat="47.19858" lon="4.66741">
        <ele>362</ele>
        <time>2013-06-11T10:15:08Z</time>
      </trkpt>
      <trkpt lat="47.19864" lon="4.66719">
        <ele>362</ele>
        <time>2013-06-11T10:15:23Z</time>
      </trkpt>
      <trkpt lat="47.19869" lon="4.66696">
        <ele>361</ele>
        <time>2013-06-11T10:15:36Z</time>
      </trkpt>
      <trkpt lat="47.19871" lon="4.66683">
        <ele>360</ele>
        <time>2013-06-11T10:15:45Z</time>
      </trkpt>
      <trkpt lat="47.19874" lon="4.66659">
        <ele>359</ele>
        <time>2013-06-11T10:15:59Z</time>
      </trkpt>
      <trkpt lat="47.19876" lon="4.66645">
        <ele>358</ele>
        <time>2013-06-11T10:16:06Z</time>
      </trkpt>
      <trkpt lat="47.19879" lon="4.66634">
        <ele>357</ele>
        <time>2013-06-11T10:16:12Z</time>
      </trkpt>
      <trkpt lat="47.19881" lon="4.66618">
        <ele>356</ele>
        <time>2013-06-11T10:16:21Z</time>
      </trkpt>
      <trkpt lat="47.19882" lon="4.66597">
        <ele>355</ele>
        <time>2013-06-11T10:16:33Z</time>
      </trkpt>
      <trkpt lat="47.1988" lon="4.66573">
        <ele>353</ele>
        <time>2013-06-11T10:16:50Z</time>
      </trkpt>
      <trkpt lat="47.19879" lon="4.66561">
        <ele>353</ele>
        <time>2013-06-11T10:16:59Z</time>
      </trkpt>
      <trkpt lat="47.19881" lon="4.66543">
        <ele>353</ele>
        <time>2013-06-11T10:17:11Z</time>
      </trkpt>
      <trkpt lat="47.19885" lon="4.66525">
        <ele>352</ele>
        <time>2013-06-11T10:17:22Z</time>
      </trkpt>
      <trkpt lat="47.19888" lon="4.66512">
        <ele>351</ele>
        <time>2013-06-11T10:17:30Z</time>
      </trkpt>
      <trkpt lat="47.19893" lon="4.66491">
        <ele>350</ele>
        <time>2013-06-11T10:17:43Z</time>
      </trkpt>
      <trkpt lat="47.19897" lon="4.66472">
        <ele>349</ele>
        <time>2013-06-11T10:17:53Z</time>
      </trkpt>
      <trkpt lat="47.19901" lon="4.66451">
        <ele>347</ele>
        <time>2013-06-11T10:18:05Z</time>
      </trkpt>
      <trkpt lat="47.19901" lon="4.6643">
        <ele>346</ele>
        <time>2013-06-11T10:18:16Z</time>
      </trkpt>
      <trkpt lat="47.19894" lon="4.66411">
        <ele>344</ele>
        <time>2013-06-11T10:18:28Z</time>
      </trkpt>
      <trkpt lat="47.19887" lon="4.66397">
        <ele>343</ele>
        <time>2013-06-11T10:18:37Z</time>
      </trkpt>
      <trkpt lat="47.19876" lon="4.66382">
        <ele>341</ele>
        <time>2013-06-11T10:18:49Z</time>
      </trkpt>
      <trkpt lat="47.19868" lon="4.66368">
        <ele>340</ele>
        <time>2013-06-11T10:18:59Z</time>
      </trkpt>
      <trkpt lat="47.19862" lon="4.66346">
        <ele>339</ele>
        <time>2013-06-11T10:19:12Z</time>
      </trkpt>
      <trkpt lat="47.19858" lon="4.66324">
        <ele>337</ele>
        <time>2013-06-11T10:19:26Z</time>
      </trkpt>
      <trkpt lat="47.19856" lon="4.66311">
        <ele>337</ele>
        <time>2013-06-11T10:19:34Z</time>
      </trkpt>
      <trkpt lat="47.19854" lon="4.66291">
        <ele>336</ele>
        <time>2013-06-11T10:19:45Z</time>
      </trkpt>
      <trkpt lat="47.19854" lon="4.66273">
        <ele>335</ele>
        <time>2013-06-11T10:19:54Z</time>
      </trkpt>
      <trkpt lat="47.19852" lon="4.66261">
        <ele>334</ele>
        <time>2013-06-11T10:20:01Z</time>
      </trkpt>
      <trkpt lat="47.1985" lon="4.66238">
        <ele>332</ele>
        <time>2013-06-11T10:20:13Z</time>
      </trkpt>
      <trkpt lat="47.19845" lon="4.66221">
        <ele>331</ele>
        <time>2013-06-11T10:20:24Z</time>
      </trkpt>
      <trkpt lat="47.19834" lon="4.66201">
        <ele>328</ele>
        <time>2013-06-11T10:20:40Z</time>
      </trkpt>
      <trkpt lat="47.19827" lon="4.66186">
        <ele>327</ele>
        <time>2013-06-11T10:20:51Z</time>
      </trkpt>
      <trkpt lat="47.19821" lon="4.66172">
        <ele>326</ele>
        <time>2013-06-11T10:21:00Z</time>
      </trkpt>
      <trkpt lat="47.19812" lon="4.66153">
        <ele>326</ele>
        <time>2013-06-11T10:21:14Z</time>
      </trkpt>
      <trkpt lat="47.19802" lon="4.66135">
        <ele>325</ele>
        <time>2013-06-11T10:21:26Z</time>
      </trkpt>
      <trkpt lat="47.19792" lon="4.66116">
        <ele>325</ele>
        <time>2013-06-11T10:21:39Z</time>
      </trkpt>
      <trkpt lat="47.19782" lon="4.66103">
        <ele>324</ele>
        <time>2013-06-11T10:21:53Z</time>
      </trkpt>
      <trkpt lat="47.19775" lon="4.66087">
        <ele>323</ele>
        <time>2013-06-11T10:22:02Z</time>
      </trkpt>
      <trkpt lat="47.19766" lon="4.66068">
        <ele>322</ele>
        <time>2013-06-11T10:22:14Z</time>
      </trkpt>
      <trkpt lat="47.1976" lon="4.66056">
        <ele>321</ele>
        <time>2013-06-11T10:22:24Z</time>
      </trkpt>
      <trkpt lat="47.19752" lon="4.66042">
        <ele>320</ele>
        <time>2013-06-11T10:22:37Z</time>
      </trkpt>
      <trkpt lat="47.19741" lon="4.66025">
        <ele>319</ele>
        <time>2013-06-11T10:22:51Z</time>
      </trkpt>
      <trkpt lat="47.19734" lon="4.66013">
        <ele>319</ele>
        <time>2013-06-11T10:22:59Z</time>
      </trkpt>
      <trkpt lat="47.19727" lon="4.66002">
        <ele>317</ele>
        <time>2013-06-11T10:23:08Z</time>
      </trkpt>
      <trkpt lat="47.19717" lon="4.65984">
        <ele>317</ele>
        <time>2013-06-11T10:23:21Z</time>
      </trkpt>
      <trkpt lat="47.19703" lon="4.65967">
        <ele>316</ele>
        <time>2013-06-11T10:23:39Z</time>
      </trkpt>
      <trkpt lat="47.19686" lon="4.65976">
        <ele>314</ele>
        <time>2013-06-11T10:24:13Z</time>
      </trkpt>
      <trkpt lat="47.19672" lon="4.66">
        <ele>314</ele>
        <time>2013-06-11T10:24:25Z</time>
      </trkpt>
      <trkpt lat="47.19662" lon="4.66017">
        <ele>313</ele>
        <time>2013-06-11T10:24:47Z</time>
      </trkpt>
      <trkpt lat="47.19644" lon="4.66032">
        <ele>311</ele>
        <time>2013-06-11T10:25:03Z</time>
      </trkpt>
      <trkpt lat="47.1963" lon="4.66053">
        <ele>308</ele>
        <time>2013-06-11T10:25:21Z</time>
      </trkpt>
      <trkpt lat="47.19618" lon="4.66067">
        <ele>306</ele>
        <time>2013-06-11T10:25:33Z</time>
      </trkpt>
      <trkpt lat="47.19607" lon="4.66085">
        <ele>305</ele>
        <time>2013-06-11T10:25:44Z</time>
      </trkpt>
      <trkpt lat="47.19593" lon="4.66107">
        <ele>301</ele>
        <time>2013-06-11T10:26:12Z</time>
      </trkpt>
      <trkpt lat="47.19579" lon="4.66127">
        <ele>300</ele>
        <time>2013-06-11T10:26:28Z</time>
      </trkpt>
      <trkpt lat="47.19565" lon="4.66147">
        <ele>299</ele>
        <time>2013-06-11T10:26:43Z</time>
      </trkpt>
      <trkpt lat="47.19555" lon="4.66167">
        <ele>299</ele>
        <time>2013-06-11T10:26:55Z</time>
      </trkpt>
      <trkpt lat="47.19543" lon="4.66187">
        <ele>299</ele>
        <time>2013-06-11T10:27:09Z</time>
      </trkpt>
      <trkpt lat="47.19536" lon="4.66207">
        <ele>299</ele>
        <time>2013-06-11T10:27:30Z</time>
      </trkpt>
      <trkpt lat="47.19522" lon="4.66219">
        <ele>300</ele>
        <time>2013-06-11T10:27:41Z</time>
      </trkpt>
      <trkpt lat="47.19507" lon="4.66237">
        <ele>301</ele>
        <time>2013-06-11T10:27:54Z</time>
      </trkpt>
      <trkpt lat="47.19498" lon="4.66256">
        <ele>304</ele>
        <time>2013-06-11T10:28:10Z</time>
      </trkpt>
      <trkpt lat="47.19489" lon="4.66285">
        <ele>307</ele>
        <time>2013-06-11T10:28:31Z</time>
      </trkpt>
      <trkpt lat="47.19473" lon="4.66313">
        <ele>308</ele>
        <time>2013-06-11T10:28:49Z</time>
      </trkpt>
      <trkpt lat="47.19459" lon="4.6633">
        <ele>310</ele>
        <time>2013-06-11T10:29:00Z</time>
      </trkpt>
      <trkpt lat="47.19444" lon="4.66348">
        <ele>310</ele>
        <time>2013-06-11T10:29:13Z</time>
      </trkpt>
      <trkpt lat="47.19433" lon="4.66366">
        <ele>310</ele>
        <time>2013-06-11T10:29:22Z</time>
      </trkpt>
      <trkpt lat="47.19418" lon="4.66392">
        <ele>310</ele>
        <time>2013-06-11T10:29:37Z</time>
      </trkpt>
      <trkpt lat="47.19401" lon="4.66413">
        <ele>309</ele>
        <time>2013-06-11T10:29:54Z</time>
      </trkpt>
      <trkpt lat="47.19387" lon="4.66427">
        <ele>307</ele>
        <time>2013-06-11T10:30:05Z</time>
      </trkpt>
      <trkpt lat="47.19374" lon="4.66439">
        <ele>307</ele>
        <time>2013-06-11T10:30:15Z</time>
      </trkpt>
      <trkpt lat="47.19357" lon="4.66462">
        <ele>307</ele>
        <time>2013-06-11T10:30:31Z</time>
      </trkpt>
      <trkpt lat="47.19346" lon="4.6648">
        <ele>306</ele>
        <time>2013-06-11T10:30:44Z</time>
      </trkpt>
      <trkpt lat="47.19337" lon="4.66499">
        <ele>305</ele>
        <time>2013-06-11T10:30:55Z</time>
      </trkpt>
      <trkpt lat="47.19325" lon="4.66517">
        <ele>304</ele>
        <time>2013-06-11T10:31:07Z</time>
      </trkpt>
      <trkpt lat="47.1931" lon="4.66533">
        <ele>302</ele>
        <time>2013-06-11T10:31:21Z</time>
      </trkpt>
      <trkpt lat="47.19296" lon="4.66547">
        <ele>301</ele>
        <time>2013-06-11T10:31:35Z</time>
      </trkpt>
      <trkpt lat="47.19288" lon="4.66553">
        <ele>301</ele>
        <time>2013-06-11T10:31:42Z</time>
      </trkpt>
      <trkpt lat="47.19273" lon="4.66566">
        <ele>301</ele>
        <time>2013-06-11T10:31:59Z</time>
      </trkpt>
      <trkpt lat="47.19257" lon="4.66575">
        <ele>301</ele>
        <time>2013-06-11T10:32:13Z</time>
      </trkpt>
      <trkpt lat="47.19236" lon="4.66594">
        <ele>302</ele>
        <time>2013-06-11T10:32:45Z</time>
      </trkpt>
      <trkpt lat="47.19218" lon="4.66601">
        <ele>303</ele>
        <time>2013-06-11T10:32:56Z</time>
      </trkpt>
      <trkpt lat="47.19202" lon="4.66608">
        <ele>302</ele>
        <time>2013-06-11T10:33:06Z</time>
      </trkpt>
      <trkpt lat="47.19183" lon="4.6662">
        <ele>302</ele>
        <time>2013-06-11T10:33:20Z</time>
      </trkpt>
      <trkpt lat="47.19166" lon="4.6663">
        <ele>303</ele>
        <time>2013-06-11T10:33:34Z</time>
      </trkpt>
      <trkpt lat="47.1915" lon="4.66635">
        <ele>302</ele>
        <time>2013-06-11T10:33:49Z</time>
      </trkpt>
      <trkpt lat="47.19125" lon="4.66652">
        <ele>301</ele>
        <time>2013-06-11T10:34:20Z</time>
      </trkpt>
      <trkpt lat="47.19108" lon="4.66661">
        <ele>301</ele>
        <time>2013-06-11T10:34:35Z</time>
      </trkpt>
      <trkpt lat="47.19093" lon="4.66668">
        <ele>300</ele>
        <time>2013-06-11T10:34:47Z</time>
      </trkpt>
      <trkpt lat="47.19079" lon="4.66672">
        <ele>299</ele>
        <time>2013-06-11T10:34:57Z</time>
      </trkpt>
      <trkpt lat="47.19069" lon="4.6668">
        <ele>300</ele>
        <time>2013-06-11T10:35:05Z</time>
      </trkpt>
      <trkpt lat="47.19061" lon="4.66685">
        <ele>300</ele>
        <time>2013-06-11T10:35:12Z</time>
      </trkpt>
      <trkpt lat="47.19051" lon="4.6669">
        <ele>301</ele>
        <time>2013-06-11T10:35:21Z</time>
      </trkpt>
      <trkpt lat="47.19042" lon="4.6669">
        <ele>302</ele>
        <time>2013-06-11T10:35:27Z</time>
      </trkpt>
      <trkpt lat="47.19023" lon="4.66706">
        <ele>303</ele>
        <time>2013-06-11T10:35:43Z</time>
      </trkpt>
      <trkpt lat="47.19015" lon="4.66718">
        <ele>305</ele>
        <time>2013-06-11T10:35:52Z</time>
      </trkpt>
      <trkpt lat="47.19001" lon="4.66729">
        <ele>306</ele>
        <time>2013-06-11T10:36:04Z</time>
      </trkpt>
      <trkpt lat="47.18994" lon="4.66737">
        <ele>307</ele>
        <time>2013-06-11T10:36:11Z</time>
      </trkpt>
      <trkpt lat="47.18984" lon="4.66746">
        <ele>307</ele>
        <time>2013-06-11T10:36:20Z</time>
      </trkpt>
      <trkpt lat="47.18975" lon="4.66752">
        <ele>307</ele>
        <time>2013-06-11T10:36:27Z</time>
      </trkpt>
      <trkpt lat="47.18966" lon="4.6677">
        <ele>307</ele>
        <time>2013-06-11T10:36:36Z</time>
      </trkpt>
      <trkpt lat="47.18955" lon="4.66773">
        <ele>307</ele>
        <time>2013-06-11T10:36:44Z</time>
      </trkpt>
      <trkpt lat="47.18946" lon="4.66775">
        <ele>306</ele>
        <time>2013-06-11T10:36:51Z</time>
      </trkpt>
      <trkpt lat="47.18931" lon="4.66778">
        <ele>306</ele>
        <time>2013-06-11T10:37:03Z</time>
      </trkpt>
      <trkpt lat="47.18915" lon="4.66782">
        <ele>305</ele>
        <time>2013-06-11T10:37:16Z</time>
      </trkpt>
      <trkpt lat="47.18901" lon="4.66792">
        <ele>304</ele>
        <time>2013-06-11T10:37:28Z</time>
      </trkpt>
      <trkpt lat="47.18887" lon="4.66802">
        <ele>304</ele>
        <time>2013-06-11T10:37:40Z</time>
      </trkpt>
      <trkpt lat="47.18874" lon="4.66811">
        <ele>303</ele>
        <time>2013-06-11T10:37:52Z</time>
      </trkpt>
      <trkpt lat="47.18866" lon="4.66818">
        <ele>303</ele>
        <time>2013-06-11T10:37:59Z</time>
      </trkpt>
      <trkpt lat="47.18855" lon="4.66828">
        <ele>303</ele>
        <time>2013-06-11T10:38:09Z</time>
      </trkpt>
      <trkpt lat="47.18847" lon="4.66833">
        <ele>303</ele>
        <time>2013-06-11T10:38:15Z</time>
      </trkpt>
      <trkpt lat="47.18839" lon="4.66839">
        <ele>302</ele>
        <time>2013-06-11T10:38:22Z</time>
      </trkpt>
      <trkpt lat="47.18824" lon="4.66847">
        <ele>302</ele>
        <time>2013-06-11T10:38:34Z</time>
      </trkpt>
      <trkpt lat="47.18816" lon="4.66852">
        <ele>302</ele>
        <time>2013-06-11T10:38:41Z</time>
      </trkpt>
      <trkpt lat="47.18801" lon="4.66862">
        <ele>302</ele>
        <time>2013-06-11T10:38:55Z</time>
      </trkpt>
      <trkpt lat="47.18794" lon="4.66867">
        <ele>302</ele>
        <time>2013-06-11T10:39:02Z</time>
      </trkpt>
      <trkpt lat="47.18782" lon="4.66881">
        <ele>301</ele>
        <time>2013-06-11T10:39:13Z</time>
      </trkpt>
      <trkpt lat="47.18767" lon="4.6689">
        <ele>301</ele>
        <time>2013-06-11T10:39:27Z</time>
      </trkpt>
      <trkpt lat="47.18751" lon="4.66888">
        <ele>301</ele>
        <time>2013-06-11T10:39:38Z</time>
      </trkpt>
      <trkpt lat="47.18737" lon="4.66897">
        <ele>302</ele>
        <time>2013-06-11T10:39:50Z</time>
      </trkpt>
      <trkpt lat="47.1873" lon="4.66904">
        <ele>302</ele>
        <time>2013-06-11T10:39:56Z</time>
      </trkpt>
      <trkpt lat="47.18722" lon="4.66911">
        <ele>302</ele>
        <time>2013-06-11T10:40:03Z</time>
      </trkpt>
      <trkpt lat="47.18709" lon="4.66924">
        <ele>302</ele>
        <time>2013-06-11T10:40:15Z</time>
      </trkpt>
      <trkpt lat="47.18698" lon="4.66934">
        <ele>302</ele>
        <time>2013-06-11T10:40:25Z</time>
      </trkpt>
      <trkpt lat="47.18689" lon="4.66953">
        <ele>302</ele>
        <time>2013-06-11T10:40:36Z</time>
      </trkpt>
      <trkpt lat="47.18683" lon="4.66967">
        <ele>302</ele>
        <time>2013-06-11T10:40:44Z</time>
      </trkpt>
      <trkpt lat="47.18673" lon="4.66986">
        <ele>301</ele>
        <time>2013-06-11T10:40:57Z</time>
      </trkpt>
      <trkpt lat="47.18665" lon="4.66996">
        <ele>300</ele>
        <time>2013-06-11T10:41:06Z</time>
      </trkpt>
      <trkpt lat="47.18658" lon="4.67016">
        <ele>299</ele>
        <time>2013-06-11T10:41:19Z</time>
      </trkpt>
      <trkpt lat="47.18651" lon="4.67037">
        <ele>298</ele>
        <time>2013-06-11T10:41:33Z</time>
      </trkpt>
      <trkpt lat="47.18644" lon="4.67052">
        <ele>298</ele>
        <time>2013-06-11T10:41:43Z</time>
      </trkpt>
      <trkpt lat="47.18643" lon="4.67066">
        <ele>298</ele>
        <time>2013-06-11T10:41:52Z</time>
      </trkpt>
      <trkpt lat="47.18639" lon="4.67089">
        <ele>298</ele>
        <time>2013-06-11T10:42:06Z</time>
      </trkpt>
      <trkpt lat="47.18637" lon="4.67111">
        <ele>298</ele>
        <time>2013-06-11T10:42:18Z</time>
      </trkpt>
      <trkpt lat="47.18633" lon="4.67133">
        <ele>298</ele>
        <time>2013-06-11T10:42:31Z</time>
      </trkpt>
      <trkpt lat="47.18629" lon="4.67156">
        <ele>298</ele>
        <time>2013-06-11T10:42:47Z</time>
      </trkpt>
      <trkpt lat="47.18623" lon="4.67178">
        <ele>299</ele>
        <time>2013-06-11T10:43:03Z</time>
      </trkpt>
      <trkpt lat="47.18621" lon="4.67189">
        <ele>298</ele>
        <time>2013-06-11T10:43:09Z</time>
      </trkpt>
      <trkpt lat="47.1862" lon="4.67203">
        <ele>298</ele>
        <time>2013-06-11T10:43:16Z</time>
      </trkpt>
      <trkpt lat="47.18618" lon="4.67219">
        <ele>298</ele>
        <time>2013-06-11T10:43:25Z</time>
      </trkpt>
      <trkpt lat="47.18614" lon="4.67237">
        <ele>297</ele>
        <time>2013-06-11T10:43:37Z</time>
      </trkpt>
      <trkpt lat="47.1861" lon="4.67259">
        <ele>297</ele>
        <time>2013-06-11T10:43:49Z</time>
      </trkpt>
      <trkpt lat="47.18608" lon="4.67274">
        <ele>297</ele>
        <time>2013-06-11T10:43:57Z</time>
      </trkpt>
      <trkpt lat="47.18604" lon="4.67297">
        <ele>297</ele>
        <time>2013-06-11T10:44:10Z</time>
      </trkpt>
      <trkpt lat="47.18602" lon="4.67309">
        <ele>297</ele>
        <time>2013-06-11T10:44:17Z</time>
      </trkpt>
      <trkpt lat="47.18598" lon="4.67321">
        <ele>296</ele>
        <time>2013-06-11T10:44:26Z</time>
      </trkpt>
      <trkpt lat="47.18591" lon="4.67352">
        <ele>296</ele>
        <time>2013-06-11T10:44:50Z</time>
      </trkpt>
      <trkpt lat="47.18589" lon="4.67364">
        <ele>296</ele>
        <time>2013-06-11T10:44:58Z</time>
      </trkpt>
      <trkpt lat="47.18583" lon="4.67386">
        <ele>297</ele>
        <time>2013-06-11T10:45:11Z</time>
      </trkpt>
      <trkpt lat="47.18581" lon="4.67411">
        <ele>297</ele>
        <time>2013-06-11T10:45:25Z</time>
      </trkpt>
      <trkpt lat="47.18579" lon="4.67435">
        <ele>298</ele>
        <time>2013-06-11T10:45:39Z</time>
      </trkpt>
      <trkpt lat="47.18573" lon="4.67456">
        <ele>297</ele>
        <time>2013-06-11T10:45:58Z</time>
      </trkpt>
      <trkpt lat="47.18563" lon="4.67439">
        <ele>300</ele>
        <time>2013-06-11T10:47:37Z</time>
      </trkpt>
      <trkpt lat="47.18567" lon="4.67424">
        <ele>299</ele>
        <time>2013-06-11T10:47:45Z</time>
      </trkpt>
      <trkpt lat="47.1857" lon="4.67405">
        <ele>295</ele>
        <time>2013-06-11T10:47:59Z</time>
      </trkpt>
      <trkpt lat="47.18572" lon="4.6739">
        <ele>293</ele>
        <time>2013-06-11T10:48:13Z</time>
      </trkpt>
      <trkpt lat="47.18575" lon="4.67374">
        <ele>292</ele>
        <time>2013-06-11T10:48:22Z</time>
      </trkpt>
      <trkpt lat="47.18577" lon="4.67366">
        <ele>292</ele>
        <time>2013-06-11T10:48:36Z</time>
      </trkpt>
      <trkpt lat="47.18575" lon="4.67355">
        <ele>292</ele>
        <time>2013-06-11T10:50:03Z</time>
      </trkpt>
      <trkpt lat="47.18568" lon="4.67327">
        <ele>287</ele>
        <time>2013-06-11T10:52:12Z</time>
      </trkpt>
      <trkpt lat="47.1857" lon="4.67303">
        <ele>279</ele>
        <time>2013-06-11T10:52:27Z</time>
      </trkpt>
      <trkpt lat="47.18578" lon="4.67283">
        <ele>276</ele>
        <time>2013-06-11T10:52:42Z</time>
      </trkpt>
      <trkpt lat="47.18584" lon="4.67261">
        <ele>274</ele>
        <time>2013-06-11T10:52:55Z</time>
      </trkpt>
      <trkpt lat="47.18589" lon="4.67239">
        <ele>273</ele>
        <time>2013-06-11T10:53:08Z</time>
      </trkpt>
      <trkpt lat="47.18592" lon="4.6722">
        <ele>271</ele>
        <time>2013-06-11T10:53:17Z</time>
      </trkpt>
      <trkpt lat="47.18597" lon="4.67198">
        <ele>271</ele>
        <time>2013-06-11T10:53:28Z</time>
      </trkpt>
      <trkpt lat="47.18601" lon="4.67182">
        <ele>272</ele>
        <time>2013-06-11T10:53:37Z</time>
      </trkpt>
      <trkpt lat="47.18605" lon="4.67161">
        <ele>275</ele>
        <time>2013-06-11T10:53:51Z</time>
      </trkpt>
      <trkpt lat="47.18607" lon="4.67148">
        <ele>277</ele>
        <time>2013-06-11T10:53:56Z</time>
      </trkpt>
      <trkpt lat="47.1861" lon="4.67126">
        <ele>281</ele>
        <time>2013-06-11T10:54:08Z</time>
      </trkpt>
      <trkpt lat="47.18615" lon="4.67109">
        <ele>286</ele>
        <time>2013-06-11T10:54:23Z</time>
      </trkpt>
      <trkpt lat="47.18619" lon="4.67088">
        <ele>288</ele>
        <time>2013-06-11T10:54:35Z</time>
      </trkpt>
      <trkpt lat="47.18621" lon="4.6707">
        <ele>291</ele>
        <time>2013-06-11T10:54:46Z</time>
      </trkpt>
      <trkpt lat="47.18613" lon="4.67054">
        <ele>294</ele>
        <time>2013-06-11T10:55:00Z</time>
      </trkpt>
      <trkpt lat="47.186" lon="4.6704">
        <ele>296</ele>
        <time>2013-06-11T10:55:13Z</time>
      </trkpt>
      <trkpt lat="47.18597" lon="4.67027">
        <ele>297</ele>
        <time>2013-06-11T10:55:22Z</time>
      </trkpt>
      <trkpt lat="47.18593" lon="4.67001">
        <ele>299</ele>
        <time>2013-06-11T10:55:44Z</time>
      </trkpt>
      <trkpt lat="47.18596" lon="4.6699">
        <ele>300</ele>
        <time>2013-06-11T10:55:54Z</time>
      </trkpt>
      <trkpt lat="47.18604" lon="4.6698">
        <ele>300</ele>
        <time>2013-06-11T10:56:03Z</time>
      </trkpt>
      <trkpt lat="47.1861" lon="4.66971">
        <ele>300</ele>
        <time>2013-06-11T10:56:13Z</time>
      </trkpt>
      <trkpt lat="47.18616" lon="4.66961">
        <ele>300</ele>
        <time>2013-06-11T10:56:20Z</time>
      </trkpt>
      <trkpt lat="47.18621" lon="4.6695">
        <ele>301</ele>
        <time>2013-06-11T10:56:26Z</time>
      </trkpt>
      <trkpt lat="47.18628" lon="4.66935">
        <ele>301</ele>
        <time>2013-06-11T10:56:38Z</time>
      </trkpt>
      <trkpt lat="47.18634" lon="4.66899">
        <ele>301</ele>
        <time>2013-06-11T10:56:56Z</time>
      </trkpt>
      <trkpt lat="47.18633" lon="4.66882">
        <ele>302</ele>
        <time>2013-06-11T10:57:05Z</time>
      </trkpt>
      <trkpt lat="47.18633" lon="4.6687">
        <ele>302</ele>
        <time>2013-06-11T10:57:11Z</time>
      </trkpt>
      <trkpt lat="47.18633" lon="4.66852">
        <ele>303</ele>
        <time>2013-06-11T10:57:20Z</time>
      </trkpt>
      <trkpt lat="47.18632" lon="4.66837">
        <ele>304</ele>
        <time>2013-06-11T10:57:28Z</time>
      </trkpt>
      <trkpt lat="47.18625" lon="4.66814">
        <ele>304</ele>
        <time>2013-06-11T10:57:42Z</time>
      </trkpt>
      <trkpt lat="47.18616" lon="4.6681">
        <ele>303</ele>
        <time>2013-06-11T10:57:52Z</time>
      </trkpt>
    </trkseg>
  </trk>
</gpx>